Time;durP1;ratioP1;P1;durP2;ratioP2;P2;SDS_P1;SDS_P2;PMS_P1;PMS_P2;Temp;Humidity;BMP_temperature;BMP_pressure;BME280_temperature;BME280_humidity;BME280_pressure;Samples;Min_cycle;Max_cycle;Signal;HPM_P1;HPM_P2
2023/01/26 04:54:55;;;;;;;23.40;11.05;;;;;;;1.52;100.00;100987.25;6116083;28;20099;-89
2023/01/26 04:58:01;;;;;;;24.70;11.57;;;;;;;1.44;100.00;100984.25;5343485;33;33696;-89
2023/01/26 05:01:07;;;;;;;29.40;13.70;;;;;;;1.45;100.00;100985.09;5343040;33;34188;-88
2023/01/26 05:04:14;;;;;;;24.30;12.15;;;;;;;1.38;100.00;100989.97;5344871;33;34289;-88
2023/01/26 05:07:17;;;;;;;24.35;12.05;;;;;;;1.40;100.00;100985.41;5344633;33;33198;-88
2023/01/26 05:10:21;;;;;;;24.63;10.90;;;;;;;1.44;100.00;100983.41;5344631;33;33534;-89
2023/01/26 05:13:25;;;;;;;22.40;10.77;;;;;;;1.36;100.00;100984.75;5345175;33;33512;-89
2023/01/26 05:16:28;;;;;;;21.42;9.65;;;;;;;1.49;100.00;100987.44;5345783;33;33828;-88
2023/01/26 05:19:31;;;;;;;23.38;10.73;;;;;;;1.44;100.00;100986.06;5345074;33;33540;-89
2023/01/26 05:22:34;;;;;;;20.52;10.02;;;;;;;1.34;100.00;100986.66;5345326;33;33099;-89
2023/01/26 05:25:37;;;;;;;20.98;10.23;;;;;;;1.36;100.00;100987.41;5345955;33;32324;-88
2023/01/26 05:28:41;;;;;;;21.00;9.93;;;;;;;1.29;100.00;100980.84;5345372;33;33928;-88
2023/01/26 05:31:44;;;;;;;19.48;9.82;;;;;;;1.31;100.00;100986.03;5345648;33;33410;-88
2023/01/26 05:34:48;;;;;;;19.33;9.98;;;;;;;1.25;100.00;100981.97;5358406;28;33403;-88
2023/01/26 05:37:50;;;;;;;20.60;8.82;;;;;;;1.28;100.00;100976.47;5345605;33;34067;-88
2023/01/26 05:40:53;;;;;;;23.10;10.07;;;;;;;1.34;100.00;100981.34;5345552;33;33647;-88
2023/01/26 05:43:56;;;;;;;20.90;10.68;;;;;;;1.31;100.00;100984.22;5346017;33;33687;-88
2023/01/26 05:47:04;;;;;;;17.02;8.85;;;;;;;1.44;100.00;100984.25;5345493;33;33884;-88
2023/01/26 05:50:07;;;;;;;18.20;9.38;;;;;;;1.30;100.00;100994.94;5345526;33;34100;-88
2023/01/26 05:53:15;;;;;;;16.05;8.18;;;;;;;1.36;100.00;100990.06;5346093;33;33603;-88
2023/01/26 05:56:18;;;;;;;18.37;8.45;;;;;;;1.23;100.00;100988.34;5345444;33;33729;-88
2023/01/26 05:59:22;;;;;;;15.50;8.32;;;;;;;1.22;100.00;100987.50;5345128;33;33407;-88
2023/01/26 06:02:28;;;;;;;17.90;9.52;;;;;;;1.17;100.00;100992.28;5347155;33;33396;-88
2023/01/26 06:05:31;;;;;;;19.25;10.10;;;;;;;1.15;100.00;100990.66;5354734;33;33752;-88
2023/01/26 06:08:36;;;;;;;22.90;11.35;;;;;;;1.13;100.00;100990.75;5355682;33;34563;-88
2023/01/26 06:11:40;;;;;;;20.45;10.00;;;;;;;1.14;100.00;100995.09;5347801;33;33951;-88
2023/01/26 06:14:43;;;;;;;16.87;8.82;;;;;;;1.15;100.00;100988.88;5345978;33;33673;-88
2023/01/26 06:17:49;;;;;;;18.67;8.70;;;;;;;1.18;100.00;100990.47;5346004;33;33671;-88
2023/01/26 06:20:57;;;;;;;18.75;9.70;;;;;;;1.17;100.00;100989.63;5353730;33;34486;-88
2023/01/26 06:24:00;;;;;;;17.58;8.52;;;;;;;1.24;100.00;100987.41;5346647;33;33392;-89
2023/01/26 06:27:05;;;;;;;17.70;8.35;;;;;;;1.21;100.00;100987.59;5347187;33;33795;-89
2023/01/26 06:30:09;;;;;;;20.67;9.40;;;;;;;1.23;100.00;100986.56;5347336;33;34389;-89
2023/01/26 06:33:15;;;;;;;18.83;9.95;;;;;;;1.27;100.00;100987.19;5347106;33;35292;-91
2023/01/26 06:36:24;;;;;;;21.70;10.02;;;;;;;1.29;100.00;100988.78;5354881;33;35207;-91
2023/01/26 06:39:27;;;;;;;22.52;10.88;;;;;;;1.25;100.00;100987.28;5358227;33;33982;-89
2023/01/26 06:42:32;;;;;;;16.65;9.13;;;;;;;1.26;100.00;100983.69;5353189;33;34898;-88
2023/01/26 06:45:35;;;;;;;19.02;9.73;;;;;;;1.27;100.00;100989.84;5347023;33;34115;-89
2023/01/26 06:48:38;;;;;;;18.98;9.25;;;;;;;1.28;100.00;100984.41;5349580;33;33527;-89
2023/01/26 06:52:03;;;;;;;18.08;9.32;;;;;;;1.35;100.00;100982.22;5357304;33;34953;-89
2023/01/26 06:55:37;;;;;;;14.90;8.85;;;;;;;1.34;100.00;100976.03;5358420;33;34948;-88
2023/01/26 06:58:45;;;;;;;17.95;8.60;;;;;;;1.30;100.00;100974.56;5342600;33;34235;-88
2023/01/26 07:01:48;;;;;;;17.23;9.48;;;;;;;1.32;100.00;100977.97;5343059;33;34231;-88
2023/01/26 07:04:51;;;;;;;18.05;9.10;;;;;;;1.36;100.00;100974.16;5338484;33;211448;-89
2023/01/26 07:07:54;;;;;;;17.55;9.07;;;;;;;1.37;100.00;100972.34;5343134;33;34167;-89
2023/01/26 07:10:58;;;;;;;19.52;8.40;;;;;;;1.41;100.00;100976.50;5343816;33;34986;-89
2023/01/26 07:14:01;;;;;;;16.23;8.30;;;;;;;1.42;100.00;100977.34;5344953;33;34088;-89
2023/01/26 07:17:03;;;;;;;16.33;8.77;;;;;;;1.48;100.00;100977.78;5345232;33;33176;-88
2023/01/26 07:20:07;;;;;;;19.73;9.02;;;;;;;1.35;100.00;100969.81;5362264;28;33539;-89
2023/01/26 07:23:14;;;;;;;18.67;8.50;;;;;;;1.24;100.00;100972.34;5355873;33;33103;-89
2023/01/26 07:26:17;;;;;;;17.58;9.02;;;;;;;1.33;100.00;100969.06;5345900;33;33801;-89
2023/01/26 07:29:19;;;;;;;16.37;8.30;;;;;;;1.31;100.00;100967.47;5352855;33;34088;-89
2023/01/26 07:32:23;;;;;;;18.23;8.10;;;;;;;1.30;100.00;100968.41;5357187;33;33532;-89
2023/01/26 07:35:25;;;;;;;16.25;8.13;;;;;;;1.44;100.00;100965.69;5348481;33;35176;-88
2023/01/26 07:38:30;;;;;;;17.77;8.40;;;;;;;1.42;100.00;100964.09;5348797;33;33314;-88
2023/01/26 07:41:33;;;;;;;18.23;9.10;;;;;;;1.35;100.00;100956.53;5348008;33;33604;-88
2023/01/26 07:44:39;;;;;;;17.52;8.48;;;;;;;1.35;100.00;100959.19;5362540;33;33395;-89
2023/01/26 07:47:42;;;;;;;22.55;8.95;;;;;;;1.38;100.00;100957.31;5364036;33;34086;-88
2023/01/26 07:50:49;;;;;;;14.93;8.13;;;;;;;1.47;100.00;100951.38;5352507;33;33981;-88
2023/01/26 07:53:53;;;;;;;13.45;7.30;;;;;;;1.57;100.00;100957.72;5346436;33;33263;-88
2023/01/26 07:56:56;;;;;;;14.35;7.53;;;;;;;1.49;100.00;100955.59;5357478;33;33720;-92
2023/01/26 07:59:59;;;;;;;16.10;8.07;;;;;;;1.38;100.00;100960.78;5357878;33;33989;-92
2023/01/26 08:03:05;;;;;;;16.30;8.30;;;;;;;1.42;100.00;100958.78;5356372;33;33813;-92
2023/01/26 08:06:08;;;;;;;14.70;7.80;;;;;;;1.39;100.00;100964.28;5434499;28;34841;-91
2023/01/26 08:09:15;;;;;;;20.08;8.00;;;;;;;1.40;100.00;100953.56;5345902;33;33537;-89
2023/01/26 08:12:18;;;;;;;18.00;8.75;;;;;;;1.55;100.00;100962.28;5350374;33;34114;-91
2023/01/26 08:15:24;;;;;;;18.25;8.55;;;;;;;1.58;100.00;100956.78;5349962;33;33516;-89
2023/01/26 08:18:40;;;;;;;18.37;8.65;;;;;;;1.62;100.00;100957.41;5256052;33;32106;-90
2023/01/26 08:21:44;;;;;;;17.83;8.80;;;;;;;1.65;100.00;100952.75;5256782;33;34147;-88
2023/01/26 08:24:47;;;;;;;16.40;8.80;;;;;;;1.75;100.00;100951.13;5246099;33;33625;-88
2023/01/26 08:27:53;;;;;;;15.35;8.30;;;;;;;1.64;100.00;100950.16;5246092;33;34207;-87
2023/01/26 08:31:06;;;;;;;15.15;8.68;;;;;;;1.75;100.00;100948.47;5249027;33;33389;-87
2023/01/26 08:34:09;;;;;;;25.95;11.40;;;;;;;1.79;100.00;100949.13;5257683;33;34312;-89
2023/01/26 08:37:12;;;;;;;19.23;9.65;;;;;;;1.80;100.00;100956.13;5258674;33;33413;-89
2023/01/26 08:40:15;;;;;;;18.40;9.13;;;;;;;1.86;100.00;100947.72;5259970;33;34209;-89
2023/01/26 08:43:19;;;;;;;15.65;8.63;;;;;;;1.91;100.00;100944.75;5260017;33;33783;-89
2023/01/26 08:46:22;;;;;;;16.05;8.85;;;;;;;1.88;100.00;100945.81;5264716;33;33229;-89
2023/01/26 08:49:25;;;;;;;19.23;8.73;;;;;;;1.97;100.00;100945.16;5259099;33;33477;-89
2023/01/26 08:52:27;;;;;;;17.58;9.05;;;;;;;1.98;100.00;100943.34;5259159;33;33645;-89
2023/01/26 08:55:32;;;;;;;16.77;9.05;;;;;;;2.06;100.00;100938.34;5258717;33;33547;-88
2023/01/26 08:58:35;;;;;;;18.75;9.73;;;;;;;2.03;100.00;100947.38;5259133;33;33266;-90
2023/01/26 09:01:38;;;;;;;20.88;10.02;;;;;;;2.18;100.00;100945.44;5262734;33;32989;-87
2023/01/26 09:04:41;;;;;;;17.17;8.77;;;;;;;2.36;100.00;100953.91;5314914;28;34832;-88
2023/01/26 09:07:44;;;;;;;18.62;9.02;;;;;;;2.43;100.00;100949.84;5377034;28;33883;-89
2023/01/26 09:10:47;;;;;;;18.05;9.63;;;;;;;2.36;100.00;100959.22;5349379;33;33542;-90
2023/01/26 09:13:55;;;;;;;19.05;10.07;;;;;;;2.35;100.00;100949.56;5347800;33;33475;-91
2023/01/26 09:16:58;;;;;;;18.35;9.70;;;;;;;2.33;100.00;100951.47;5347117;33;34295;-89
2023/01/26 09:20:05;;;;;;;15.00;8.77;;;;;;;2.12;100.00;100953.00;5347396;33;33728;-89
2023/01/26 09:23:11;;;;;;;18.70;9.93;;;;;;;2.22;100.00;100948.72;5350694;33;33290;-90
2023/01/26 09:26:14;;;;;;;18.80;10.40;;;;;;;2.22;100.00;100951.38;5351333;33;33341;-89
2023/01/26 09:29:17;;;;;;;18.98;10.10;;;;;;;2.17;100.00;100946.41;5345405;33;33434;-89
2023/01/26 09:32:21;;;;;;;21.48;11.15;;;;;;;2.25;100.00;100940.53;5348458;33;33036;-89
2023/01/26 09:35:28;;;;;;;18.70;9.95;;;;;;;2.17;100.00;100941.09;5356268;33;34526;-88
2023/01/26 09:38:32;;;;;;;20.50;10.55;;;;;;;2.28;100.00;100937.66;5361483;33;33914;-89
2023/01/26 09:41:53;;;;;;;18.25;10.05;;;;;;;2.37;100.00;100945.00;5350018;33;34846;-89
2023/01/26 09:45:11;;;;;;;20.27;10.00;;;;;;;2.34;100.00;100942.56;5354352;33;34816;-89
2023/01/26 09:48:28;;;;;;;19.27;10.30;;;;;;;2.14;100.00;100933.34;5345904;33;34200;-89
2023/01/26 09:51:47;;;;;;;18.62;10.68;;;;;;;2.11;100.00;100930.06;5345748;33;33710;-89
2023/01/26 09:54:57;;;;;;;20.23;11.07;;;;;;;2.25;100.00;100929.91;5346690;33;34260;-89
2023/01/26 09:58:05;;;;;;;;;;;;;;;2.17;100.00;100916.34;5346100;33;33856;-89
2023/01/26 10:01:30;;;;;;;18.67;10.20;;;;;;;2.07;100.00;100913.50;5346224;33;33634;-89
2023/01/26 10:04:36;;;;;;;18.87;9.90;;;;;;;2.15;100.00;100912.94;5346095;33;34339;-89
2023/01/26 10:07:44;;;;;;;18.27;10.30;;;;;;;2.22;100.00;100912.41;5343761;33;33663;-89
2023/01/26 10:10:58;;;;;;;20.73;10.00;;;;;;;2.23;100.00;100905.28;5344984;33;33267;-89
2023/01/26 10:14:04;;;;;;;19.02;10.27;;;;;;;2.28;100.00;100900.47;5347466;33;34866;-89
2023/01/26 10:17:41;;;;;;;22.02;10.30;;;;;;;2.07;100.00;100891.41;5347579;33;35067;-89
2023/01/26 10:20:49;;;;;;;17.58;9.75;;;;;;;2.10;100.00;100897.34;5332457;33;33239;-90
2023/01/26 10:23:53;;;;;;;22.13;10.55;;;;;;;2.11;100.00;100890.25;5344674;33;33831;-93
2023/01/26 10:26:57;;;;;;;21.05;11.63;;;;;;;2.16;99.53;100880.09;5342811;33;34038;-93
2023/01/26 10:30:00;;;;;;;18.98;10.02;;;;;;;2.25;100.00;100882.09;5340627;33;33489;-90
2023/01/26 10:33:34;;;;;;;21.33;9.52;;;;;;;2.26;100.00;100875.84;5337711;33;33475;-90
2023/01/26 10:36:39;;;;;;;19.87;9.40;;;;;;;2.17;98.98;100869.38;5338030;33;33602;-90
2023/01/26 10:40:03;;;;;;;20.15;9.77;;;;;;;2.15;98.56;100862.47;5346244;33;34097;-89
2023/01/26 10:43:17;;;;;;;25.00;9.77;;;;;;;2.18;99.53;100865.75;5343156;33;34568;-89
2023/01/26 10:46:27;;;;;;;17.40;9.23;;;;;;;2.22;98.39;100863.72;5339328;33;33572;-89
2023/01/26 10:49:30;;;;;;;18.92;10.18;;;;;;;2.14;96.96;100856.34;5343073;33;33424;-90
2023/01/26 10:52:33;;;;;;;21.65;9.85;;;;;;;2.24;98.23;100862.66;5342987;33;33487;-89
2023/01/26 10:55:36;;;;;;;16.75;9.80;;;;;;;2.31;98.12;100857.75;5342266;33;33518;-89
2023/01/26 10:58:51;;;;;;;16.60;9.45;;;;;;;2.37;98.40;100853.78;5333964;33;33592;-89
2023/01/26 11:02:14;;;;;;;15.30;9.07;;;;;;;2.31;98.33;100841.81;5342925;33;34327;-89
2023/01/26 11:05:22;;;;;;;17.42;10.00;;;;;;;2.38;99.32;100839.53;5335337;33;33775;-89
2023/01/26 11:08:34;;;;;;;;;;;;;;;2.47;97.19;100837.03;5343318;33;34429;-89
2023/01/26 11:11:37;;;;;;;16.17;9.07;;;;;;;2.53;97.39;100834.91;5345258;33;33083;-91
2023/01/26 11:14:40;;;;;;;18.73;9.75;;;;;;;2.47;98.28;100831.72;5345325;33;36442;-92
2023/01/26 11:17:48;;;;;;;20.60;10.43;;;;;;;2.45;97.89;100825.66;5360072;33;34936;-92
2023/01/26 11:21:15;;;;;;;20.95;9.88;;;;;;;2.43;95.23;100827.63;5341272;33;34864;-89
2023/01/26 11:24:25;;;;;;;18.40;10.00;;;;;;;2.39;96.59;100820.81;5342987;33;34140;-88
2023/01/26 11:27:47;;;;;;;;;;;;;;;2.39;99.41;100810.19;5345522;33;33862;-88
2023/01/26 11:31:08;;;;;;;18.12;9.60;;;;;;;2.43;97.63;100810.84;5347072;33;33608;-89
2023/01/26 11:34:24;;;;;;;18.35;10.60;;;;;;;2.38;97.09;100818.28;5347912;33;34086;-88
2023/01/26 11:37:44;;;;;;;20.95;9.93;;;;;;;2.23;98.89;100807.00;5342977;33;34688;-88
2023/01/26 11:41:12;;;;;;;18.10;10.05;;;;;;;2.33;100.00;100815.97;5349629;33;33550;-88
2023/01/26 11:44:23;;;;;;;19.12;10.50;;;;;;;2.25;100.00;100811.25;5344717;33;33740;-88
2023/01/26 11:47:48;;;;;;;23.10;12.05;;;;;;;2.24;100.00;100808.69;5343044;33;33736;-88
2023/01/26 11:51:06;;;;;;;24.83;11.95;;;;;;;2.18;100.00;100794.03;5332781;33;33352;-89
2023/01/26 11:54:17;;;;;;;25.65;13.05;;;;;;;2.36;100.00;100793.63;5344059;33;34052;-89
2023/01/26 11:57:45;;;;;;;22.10;11.43;;;;;;;2.50;100.00;100785.47;5347298;33;33236;-90
2023/01/26 12:00:56;;;;;;;25.07;12.17;;;;;;;2.59;100.00;100773.31;5322359;33;33740;-90
2023/01/26 12:03:59;;;;;;;26.60;12.57;;;;;;;2.62;100.00;100770.41;5344452;33;33386;-89
2023/01/26 12:07:13;;;;;;;26.35;12.00;;;;;;;2.62;100.00;100765.09;5342956;33;33214;-89
2023/01/26 12:10:23;;;;;;;23.52;11.95;;;;;;;2.66;100.00;100756.78;5327441;33;34535;-88
2023/01/26 12:13:42;;;;;;;24.70;12.05;;;;;;;2.65;100.00;100759.53;5315807;33;33751;-89
2023/01/26 12:17:25;;;;;;;26.30;11.70;;;;;;;2.59;100.00;100752.88;5316628;33;33558;-90
2023/01/26 12:20:41;;;;;;;26.42;12.37;;;;;;;2.57;100.00;100756.63;5331775;33;34886;-93
2023/01/26 12:23:50;;;;;;;25.15;11.45;;;;;;;2.59;100.00;100749.37;5331724;33;34238;-90
2023/01/26 12:26:53;;;;;;;21.70;11.90;;;;;;;2.62;100.00;100746.50;5334308;33;33459;-90
2023/01/26 12:30:23;;;;;;;26.15;11.95;;;;;;;2.62;100.00;100749.16;5336096;33;34958;-90
2023/01/26 12:33:26;;;;;;;22.62;11.55;;;;;;;2.68;100.00;100744.19;5330213;33;34338;-90
2023/01/26 12:36:57;;;;;;;21.37;12.52;;;;;;;2.66;100.00;100734.63;5330064;33;33370;-90
2023/01/26 12:40:08;;;;;;;23.38;12.30;;;;;;;2.67;100.00;100733.69;5330777;33;34333;-90
2023/01/26 12:43:40;;;;;;;21.30;11.52;;;;;;;2.85;100.00;100728.75;5316753;33;33288;-90
2023/01/26 12:46:50;;;;;;;25.05;11.93;;;;;;;2.77;100.00;100724.03;5330583;33;34432;-90
2023/01/26 12:50:14;;;;;;;24.20;11.30;;;;;;;2.77;100.00;100721.37;5332083;33;33569;-89
2023/01/26 12:53:32;;;;;;;26.60;12.70;;;;;;;2.77;100.00;100718.72;5330885;33;32759;-90
2023/01/26 12:56:41;;;;;;;27.10;12.77;;;;;;;2.74;100.00;100718.94;5330237;33;33226;-89
2023/01/26 12:59:45;;;;;;;22.50;12.48;;;;;;;2.68;100.00;100722.94;5330955;33;32931;-90
2023/01/26 13:02:57;;;;;;;29.05;12.60;;;;;;;2.73;100.00;100718.09;5320924;33;34108;-90
2023/01/26 13:06:09;;;;;;;25.67;12.77;;;;;;;2.59;100.00;100705.03;5324688;33;34142;-90
2023/01/26 13:09:22;;;;;;;24.48;12.00;;;;;;;2.52;100.00;100710.97;5343507;33;33123;-90
2023/01/26 13:12:44;;;;;;;27.58;12.23;;;;;;;2.58;100.00;100711.31;5348782;33;33924;-90
2023/01/26 13:16:16;;;;;;;24.12;12.27;;;;;;;2.53;100.00;100710.00;5354384;33;33613;-89
2023/01/26 13:19:48;;;;;;;25.15;12.37;;;;;;;2.36;100.00;100704.13;5351617;33;33761;-90
2023/01/26 13:22:52;;;;;;;25.90;12.20;;;;;;;2.28;100.00;100709.19;5347037;28;34142;-90
2023/01/26 13:26:17;;;;;;;26.23;11.30;;;;;;;2.25;100.00;100704.97;5309740;33;34593;-90
2023/01/26 13:29:52;;;;;;;25.20;11.70;;;;;;;2.24;100.00;100699.75;5342394;28;34146;31
2023/01/26 13:32:58;;;;;;;22.30;12.18;;;;;;;2.15;100.00;100703.12;5314890;28;34721;-90
2023/01/26 13:36:04;;;;;;;25.77;12.85;;;;;;;2.24;100.00;100702.41;5340673;28;33685;-90
2023/01/26 13:43:29;;;;;;;22.60;11.93;;;;;;;2.15;100.00;100703.12;4759624;28;20136;-90
2023/01/26 13:46:49;;;;;;;24.23;11.98;;;;;;;2.10;100.00;100705.28;5309644;33;33206;-89
2023/01/26 13:49:52;;;;;;;25.27;11.77;;;;;;;2.04;100.00;100702.09;5310659;33;33207;-90
2023/01/26 13:52:55;;;;;;;24.73;12.15;;;;;;;1.92;100.00;100708.34;5310027;33;34376;-90
2023/01/26 13:55:59;;;;;;;24.23;12.23;;;;;;;1.95;100.00;100705.44;5309629;33;33559;-89
2023/01/26 13:59:10;;;;;;;23.23;11.82;;;;;;;1.90;100.00;100704.97;5316223;28;35167;-90
2023/01/26 14:02:23;;;;;;;22.42;11.38;;;;;;;1.68;100.00;100694.25;5321329;33;34417;-91
2023/01/26 14:05:27;;;;;;;24.17;12.15;;;;;;;1.80;100.00;100691.50;5305012;33;34046;-89
2023/01/26 14:08:32;;;;;;;24.00;11.63;;;;;;;1.78;100.00;100698.75;5320984;28;33700;-89
2023/01/26 14:11:35;;;;;;;23.12;12.05;;;;;;;1.86;100.00;100694.69;5362019;28;33204;-90
2023/01/26 14:14:39;;;;;;;29.02;12.30;;;;;;;1.78;100.00;100692.59;5380728;28;32016;-90
2023/01/26 14:18:18;;;;;;;25.67;12.07;;;;;;;1.82;100.00;100699.38;5345138;28;33690;-88
2023/01/26 14:21:21;;;;;;;22.48;11.63;;;;;;;1.79;100.00;100694.28;5345384;33;33564;-88
2023/01/26 14:24:30;;;;;;;25.02;13.30;;;;;;;1.73;100.00;100698.25;5346512;33;33854;-88
2023/01/26 14:27:39;;;;;;;24.58;11.75;;;;;;;1.73;100.00;100697.41;5353853;33;33883;-89
2023/01/26 14:30:42;;;;;;;25.00;12.10;;;;;;;1.83;100.00;100706.38;5383942;28;33442;-90
2023/01/26 14:33:47;;;;;;;22.37;12.15;;;;;;;1.80;100.00;100703.94;5343559;33;33227;-88
2023/01/26 14:37:12;;;;;;;26.02;12.05;;;;;;;1.80;100.00;100702.13;5344562;33;33510;-88
2023/01/26 14:40:24;;;;;;;27.00;11.50;;;;;;;1.84;100.00;100701.91;5384114;28;34057;-88
2023/01/26 14:43:27;;;;;;;26.02;12.00;;;;;;;1.75;100.00;100693.66;5328837;33;33862;-91
2023/01/26 14:47:02;;;;;;;27.35;12.80;;;;;;;1.79;100.00;100692.47;5326691;33;32596;-87
2023/01/26 14:54:17;;;;;;;24.02;11.93;;;;;;;1.74;100.00;100691.13;5350659;33;20131;-89
2023/01/26 14:57:23;;;;;;;24.00;11.05;;;;;;;1.73;100.00;100694.75;5353948;33;34412;-87
2023/01/26 15:00:33;;;;;;;23.35;11.05;;;;;;;1.59;100.00;100696.59;5355462;33;34404;-86
2023/01/26 15:03:37;;;;;;;19.12;9.75;;;;;;;1.55;100.00;100684.53;5348751;33;34270;-88
2023/01/26 15:06:40;;;;;;;26.77;11.30;;;;;;;1.57;100.00;100687.06;5350785;33;33709;-88
2023/01/26 15:09:51;;;;;;;21.58;10.95;;;;;;;1.51;100.00;100685.69;5358075;33;34228;-90
2023/01/26 15:12:57;;;;;;;19.27;9.60;;;;;;;1.43;100.00;100689.88;5356830;33;33569;-89
2023/01/26 15:16:10;;;;;;;19.75;9.60;;;;;;;1.45;100.00;100687.97;5365048;33;33119;-87
2023/01/26 15:19:22;;;;;;;23.58;10.05;;;;;;;1.32;100.00;100693.31;5365369;27;34399;-88
2023/01/26 15:22:25;;;;;;;20.62;10.20;;;;;;;1.33;100.00;100693.19;5348178;33;33986;-88
2023/01/26 15:25:36;;;;;;;20.48;10.25;;;;;;;1.32;100.00;100693.31;5343974;33;33795;-88
2023/01/26 15:28:40;;;;;;;21.48;10.27;;;;;;;1.34;100.00;100696.69;5343142;33;34090;-88
2023/01/26 15:31:42;;;;;;;20.25;10.30;;;;;;;1.36;100.00;100692.97;5344035;33;33473;-91
2023/01/26 15:34:46;;;;;;;24.85;11.52;;;;;;;1.35;100.00;100695.75;5351615;33;34937;-93
2023/01/26 15:37:59;;;;;;;23.00;11.07;;;;;;;1.34;100.00;100692.22;5355581;33;34883;-92
2023/01/26 15:41:04;;;;;;;19.15;10.15;;;;;;;1.49;100.00;100697.38;5343354;33;33565;-89
2023/01/26 15:44:18;;;;;;;21.92;11.00;;;;;;;1.33;100.00;100692.34;5352065;33;33635;-90
2023/01/26 15:47:21;;;;;;;19.98;10.93;;;;;;;1.33;100.00;100685.22;5353342;33;34893;-89
2023/01/26 15:50:24;;;;;;;22.17;10.32;;;;;;;1.37;100.00;100691.16;5342735;33;33641;-89
2023/01/26 15:53:30;;;;;;;25.25;12.37;;;;;;;1.33;100.00;100689.69;5345107;33;33439;-89
2023/01/26 15:56:33;;;;;;;18.45;9.30;;;;;;;1.37;100.00;100693.81;5344566;33;33815;-89
2023/01/26 15:59:36;;;;;;;21.10;10.32;;;;;;;1.44;100.00;100695.06;5342415;33;34374;-89
2023/01/26 16:02:39;;;;;;;23.33;10.15;;;;;;;1.36;100.00;100700.09;5383723;28;33615;-89
2023/01/26 16:05:46;;;;;;;24.45;10.60;;;;;;;1.35;100.00;100701.87;5322341;33;33810;-89
2023/01/26 16:08:49;;;;;;;20.80;10.38;;;;;;;1.31;100.00;100703.06;5324864;33;34334;-88
2023/01/26 16:11:52;;;;;;;20.75;11.12;;;;;;;1.39;100.00;100704.31;5325052;33;33704;-89
2023/01/26 16:14:55;;;;;;;20.75;10.20;;;;;;;1.33;100.00;100709.09;5330522;33;33110;-89
2023/01/26 16:17:58;;;;;;;20.80;9.77;;;;;;;1.35;100.00;100704.53;5334031;33;33931;-89
2023/01/26 16:21:01;;;;;;;19.62;9.73;;;;;;;1.35;100.00;100695.75;5339682;33;33522;-89
2023/01/26 16:24:04;;;;;;;18.20;10.10;;;;;;;1.32;99.90;100696.81;5326640;33;33572;-89
2023/01/26 16:27:08;;;;;;;19.98;10.90;;;;;;;1.28;99.09;100697.13;5365063;28;33477;-89
2023/01/26 16:30:11;;;;;;;20.12;9.23;;;;;;;1.33;100.00;100687.87;5325694;33;33842;-89
2023/01/26 16:33:19;;;;;;;19.37;10.10;;;;;;;1.31;100.00;100699.56;5324762;33;34243;-89
2023/01/26 16:36:22;;;;;;;19.58;9.95;;;;;;;1.28;99.96;100694.47;5324962;33;34133;-89
2023/01/26 16:39:25;;;;;;;20.00;9.70;;;;;;;1.25;97.58;100694.69;5370556;28;33932;-89
2023/01/26 16:42:28;;;;;;;18.27;9.68;;;;;;;1.27;97.93;100692.78;5324821;33;34167;-89
2023/01/26 16:45:31;;;;;;;18.83;10.43;;;;;;;1.35;96.70;100695.75;5324963;33;33435;-89
2023/01/26 16:48:35;;;;;;;15.25;8.90;;;;;;;1.31;97.69;100700.41;5324506;33;33763;-89
2023/01/26 16:51:38;;;;;;;17.92;8.50;;;;;;;1.55;91.72;100696.94;5324779;33;33846;-89
2023/01/26 16:54:44;;;;;;;15.98;8.25;;;;;;;1.45;93.80;100694.09;5325403;33;33365;-89
2023/01/26 16:57:48;;;;;;;20.62;10.30;;;;;;;1.42;91.65;100686.38;5327703;33;34316;-89
2023/01/26 17:00:55;;;;;;;17.65;8.93;;;;;;;1.36;90.86;100694.78;5323069;33;34281;-89
2023/01/26 17:03:58;;;;;;;19.40;8.35;;;;;;;1.23;91.45;100688.66;5347061;33;33425;-89
2023/01/26 17:07:01;;;;;;;18.80;8.93;;;;;;;1.23;92.65;100683.34;5345114;33;34086;-89
